Time;durP1;ratioP1;P1;durP2;ratioP2;P2;SDS_P1;SDS_P2;PMS_P1;PMS_P2;Temp;Humidity;BMP_temperature;BMP_pressure;BME280_temperature;BME280_humidity;BME280_pressure;Samples;Min_cycle;Max_cycle;Signal;HPM_P1;HPM_P2
2023/02/09 00:00:24;;;;;;;;;;;;;;;-1.19;55.99;101592.56;1087648;54;19942;-79
2023/02/09 00:01:26;;;;;;;;;;;;;;;-1.25;55.91;101590.94;1087862;54;19974;-79
2023/02/09 00:02:32;;;;;;;;;;;;;;;-1.22;55.93;101587.38;1087849;54;19993;-79
2023/02/09 00:03:33;;;;;;;;;;;;;;;-1.24;55.87;101589.16;1087460;54;19949;-79
2023/02/09 00:04:37;;;;;;;;;;;;;;;-1.30;55.90;101579.66;1087402;54;19943;-80
2023/02/09 00:05:41;;;;;;;;;;;;;;;-1.34;56.16;101588.50;1087492;54;19943;-79
2023/02/09 00:06:46;;;;;;;;;;;;;;;-1.35;56.34;101581.53;1087497;54;19965;-79
2023/02/09 00:07:47;;;;;;;;;;;;;;;-1.35;56.33;101578.91;1087888;54;19949;-79
2023/02/09 00:08:51;;;;;;;;;;;;;;;-1.38;56.31;101582.44;1088550;39;20097;-79
2023/02/09 00:09:52;;;;;;;;;;;;;;;-1.41;56.43;101582.50;1087913;54;19942;-79
2023/02/09 00:10:57;;;;;;;;;;;;;;;-1.49;56.55;101576.53;1087883;54;19927;-79
2023/02/09 00:13:23;;;;;;;;;;;;;;;-1.51;56.59;101576.56;1087800;54;19954;-79
2023/02/09 00:14:25;;;;;;;;;;;;;;;-1.50;56.50;101572.19;1089231;39;20685;-79
2023/02/09 00:15:28;;;;;;;;;;;;;;;-1.55;56.59;101572.28;1087884;54;20720;-81
2023/02/09 00:16:29;;;;;;;;;;;;;;;-1.62;56.79;101570.69;1088384;39;20558;-79
2023/02/09 00:17:34;;;;;;;;;;;;;;;-1.65;56.74;101570.72;1088729;39;20206;-79
2023/02/09 00:18:35;;;;;;;;;;;;;;;-1.69;56.80;101572.53;1087794;54;19995;-79
2023/02/09 00:19:40;;;;;;;;;;;;;;;-1.69;57.05;101566.41;1087817;54;19946;-79
2023/02/09 00:20:44;;;;;;;;;;;;;;;-1.70;56.98;101580.44;1087852;54;19998;-79
2023/02/09 00:21:48;;;;;;;;;;;;;;;-1.75;57.18;101567.44;1087918;54;20674;-79
2023/02/09 00:22:49;;;;;;;;;;;;;;;-1.73;57.29;101563.88;1087794;54;19942;-80
2023/02/09 00:23:53;;;;;;;;;;;;;;;-1.71;57.18;101568.22;1087872;54;19969;-79
2023/02/09 00:24:54;;;;;;;;;;;;;;;-1.71;57.26;101568.22;1087771;54;19946;-80
2023/02/09 00:26:00;;;;;;;;;;;;;;;-1.75;57.25;101567.44;1087702;54;19987;-79
2023/02/09 00:27:01;;;;;;;;;;;;;;;-1.75;57.27;101557.78;1087816;54;19938;-79
2023/02/09 00:28:05;;;;;;;;;;;;;;;-1.73;57.12;101556.00;1087762;54;19974;-79
2023/02/09 00:29:07;;;;;;;;;;;;;;;-1.71;57.26;101558.59;1087806;54;19950;-79
2023/02/09 00:30:11;;;;;;;;;;;;;;;-1.64;57.02;101562.81;1088501;46;20523;-80
2023/02/09 00:31:12;;;;;;;;;;;;;;;-1.57;56.50;101558.31;1087797;47;20578;-79
2023/02/09 00:32:16;;;;;;;;;;;;;;;-1.52;56.56;101556.50;1089287;39;20534;-79
2023/02/09 00:33:17;;;;;;;;;;;;;;;-1.48;56.17;101560.75;1087799;54;19949;-79
2023/02/09 00:34:21;;;;;;;;;;;;;;;-1.44;56.26;101553.69;1087649;54;19927;-79
2023/02/09 00:35:22;;;;;;;;;;;;;;;-1.44;56.02;101554.56;1087729;54;20006;-79
2023/02/09 00:36:29;;;;;;;;;;;;;;;-1.46;56.05;101553.75;1087799;54;20614;-80
2023/02/09 00:37:30;;;;;;;;;;;;;;;-1.39;56.15;101558.84;1087749;54;19943;-79
2023/02/09 00:38:33;;;;;;;;;;;;;;;-1.42;56.18;101560.63;1087814;39;20458;-79
2023/02/09 00:39:34;;;;;;;;;;;;;;;-1.43;56.07;101558.06;1087750;46;20650;-79
2023/02/09 00:40:38;;;;;;;;;;;;;;;-1.46;56.36;101558.97;1087294;54;19942;-79
2023/02/09 00:42:58;;;;;;;;;;;;;;;-1.50;56.30;101562.53;1087737;54;19942;-79
2023/02/09 00:43:59;;;;;;;;;;;;;;;-1.56;56.88;101560.06;1087671;54;19951;-79
2023/02/09 00:45:03;;;;;;;;;;;;;;;-1.57;56.58;101556.59;1087673;54;19943;-78
2023/02/09 00:46:04;;;;;;;;;;;;;;;-1.52;56.69;101556.50;1087646;54;19943;-78
2023/02/09 00:47:09;;;;;;;;;;;;;;;-1.47;56.07;101562.50;1087846;46;19947;-79
2023/02/09 00:48:10;;;;;;;;;;;;;;;-1.41;56.14;101559.75;1088211;46;19958;-80
2023/02/09 00:49:14;;;;;;;;;;;;;;;-1.42;56.28;101559.78;1087910;54;19974;-79
2023/02/09 00:50:15;;;;;;;;;;;;;;;-1.41;56.38;101565.00;1087894;54;19950;-79
2023/02/09 00:51:19;;;;;;;;;;;;;;;-1.45;56.35;101554.59;1087809;54;19942;-79
2023/02/09 00:52:23;;;;;;;;;;;;;;;-1.49;56.58;101552.94;1087851;54;19946;-79
2023/02/09 00:53:26;;;;;;;;;;;;;;;-1.57;56.74;101555.69;1087846;54;19943;-79
2023/02/09 00:54:27;;;;;;;;;;;;;;;-1.60;56.85;101553.13;1087847;54;19934;-80
2023/02/09 00:55:31;;;;;;;;;;;;;;;-1.55;56.64;101550.41;1087835;54;19945;-80
2023/02/09 00:56:32;;;;;;;;;;;;;;;-1.52;56.65;101548.63;1087765;54;19950;-79
2023/02/09 00:57:36;;;;;;;;;;;;;;;-1.52;56.63;101553.88;1087749;54;20825;-80
2023/02/09 00:58:37;;;;;;;;;;;;;;;-1.55;56.57;101564.41;1087822;54;19943;-81
2023/02/09 00:59:42;;;;;;;;;;;;;;;-1.54;56.43;101554.78;1087772;54;20641;-79
2023/02/09 01:00:43;;;;;;;;;;;;;;;-1.58;56.61;101557.47;1087508;54;19938;-80
2023/02/09 01:01:47;;;;;;;;;;;;;;;-1.58;57.06;101557.47;1087808;54;19966;-79
2023/02/09 01:02:48;;;;;;;;;;;;;;;-1.57;56.80;101558.31;1087748;54;19949;-79
2023/02/09 01:03:52;;;;;;;;;;;;;;;-1.63;57.07;101555.84;1087786;54;19958;-79
2023/02/09 01:04:53;;;;;;;;;;;;;;;-1.63;56.96;101558.47;1087790;54;19938;-79
2023/02/09 01:05:59;;;;;;;;;;;;;;;-1.63;57.19;101550.59;1087784;54;19950;-80
2023/02/09 01:07:00;;;;;;;;;;;;;;;-1.58;56.84;101551.34;1087791;54;19942;-79
2023/02/09 01:08:07;;;;;;;;;;;;;;;-1.58;56.81;101549.59;1087809;54;19958;-79
2023/02/09 01:09:08;;;;;;;;;;;;;;;-1.62;57.06;101554.94;1087757;54;20801;-79
2023/02/09 01:10:12;;;;;;;;;;;;;;;-1.60;56.71;101561.00;1087772;54;19942;-79
2023/02/09 01:11:14;;;;;;;;;;;;;;;-1.61;56.88;101548.81;1087811;54;19943;-78
2023/02/09 01:12:19;;;;;;;;;;;;;;;-1.60;56.86;101559.25;1088880;46;19994;-80
2023/02/09 01:13:20;;;;;;;;;;;;;;;-1.57;56.65;101559.22;1087758;54;19939;-81
2023/02/09 01:14:24;;;;;;;;;;;;;;;-1.57;56.89;101561.81;1088255;46;19954;-79
2023/02/09 01:15:25;;;;;;;;;;;;;;;-1.53;56.77;101561.75;1087789;54;19939;-79
2023/02/09 01:16:30;;;;;;;;;;;;;;;-1.53;56.70;101556.50;1087824;54;19943;-79
2023/02/09 01:17:33;;;;;;;;;;;;;;;-1.52;56.75;101553.00;1087893;54;19973;-79
2023/02/09 01:18:35;;;;;;;;;;;;;;;-1.47;56.54;101556.41;1087803;54;19949;-80
2023/02/09 01:19:39;;;;;;;;;;;;;;;-1.52;56.82;101547.75;1087838;54;19950;-80
2023/02/09 01:20:40;;;;;;;;;;;;;;;-1.53;56.79;101549.50;1087770;54;19943;-80
2023/02/09 01:21:44;;;;;;;;;;;;;;;-1.54;56.68;101550.41;1087795;54;19943;-79
2023/02/09 01:22:45;;;;;;;;;;;;;;;-1.50;56.67;101549.44;1087821;54;19973;-79
2023/02/09 01:23:52;;;;;;;;;;;;;;;-1.51;56.66;101550.31;1087791;54;19942;-80
2023/02/09 01:24:53;;;;;;;;;;;;;;;-1.47;56.30;101549.38;1087826;54;19967;-79
2023/02/09 01:26:08;;;;;;;;;;;;;;;-1.45;56.50;101557.22;1087800;54;19950;-79
2023/02/09 01:27:09;;;;;;;;;;;;;;;-1.45;56.43;101552.84;1087893;54;19951;-79
2023/02/09 01:28:13;;;;;;;;;;;;;;;-1.44;56.41;101545.81;1087933;54;19960;-79
2023/02/09 01:29:16;;;;;;;;;;;;;;;-1.42;56.30;101542.25;1087953;54;19927;-79
2023/02/09 01:30:20;;;;;;;;;;;;;;;-1.42;56.33;101534.41;1087956;54;19973;-79
2023/02/09 01:31:22;;;;;;;;;;;;;;;-1.49;56.55;101538.03;1088237;46;19939;-83
2023/02/09 01:32:26;;;;;;;;;;;;;;;-1.46;56.63;101531.88;1088019;54;19943;-80
2023/02/09 01:33:28;;;;;;;;;;;;;;;-1.48;56.52;101529.28;1088033;54;19942;-82
2023/02/09 01:34:38;;;;;;;;;;;;;;;-1.54;56.89;101533.78;1088066;54;19939;-82
2023/02/09 01:35:39;;;;;;;;;;;;;;;-1.61;56.82;101527.81;1088759;46;19946;-80
2023/02/09 01:36:45;;;;;;;;;;;;;;;-1.63;56.79;101533.06;1088140;54;19994;-81
2023/02/09 01:37:46;;;;;;;;;;;;;;;-1.61;56.73;101533.06;1088173;54;20355;-82
2023/02/09 01:39:01;;;;;;;;;;;;;;;-1.63;57.01;101534.84;1088111;54;19946;-80
2023/02/09 01:40:04;;;;;;;;;;;;;;;-1.58;56.79;101530.38;1088153;54;19938;-79
2023/02/09 01:41:07;;;;;;;;;;;;;;;-1.58;56.77;101532.97;1088196;46;19954;-79
2023/02/09 01:42:12;;;;;;;;;;;;;;;-1.59;56.65;101520.75;1088755;46;19939;-81
2023/02/09 01:43:29;;;;;;;;;;;;;;;-1.56;56.60;101531.19;1088285;46;19923;-78
2023/02/09 01:44:48;;;;;;;;;;;;;;;-1.57;56.56;101527.72;1089422;46;19946;-79
2023/02/09 01:45:53;;;;;;;;;;;;;;;-1.55;56.36;101532.94;1088165;54;19939;-83
2023/02/09 01:46:54;;;;;;;;;;;;;;;-1.67;56.94;101527.91;1088129;54;20002;-79
2023/02/09 01:48:00;;;;;;;;;;;;;;;-1.68;56.98;101526.19;1089067;46;19951;-80
2023/02/09 01:49:04;;;;;;;;;;;;;;;-1.73;57.03;101527.16;1091530;39;20160;-81
2023/02/09 01:50:09;;;;;;;;;;;;;;;-1.75;57.16;101528.09;1088194;54;19933;-80
2023/02/09 01:51:10;;;;;;;;;;;;;;;-1.71;57.13;101531.50;1088082;54;19943;-82
2023/02/09 01:52:16;;;;;;;;;;;;;;;-1.72;56.92;101525.38;1088596;46;19943;-82
2023/02/09 01:53:20;;;;;;;;;;;;;;;-1.73;56.89;101521.91;1088057;54;19943;-79
2023/02/09 01:55:51;;;;;;;;;;;;;;;-1.77;57.06;101520.22;1088012;54;20543;-79
2023/02/09 01:56:56;;;;;;;;;;;;;;;-1.79;57.27;101524.63;1089977;46;19943;-80
2023/02/09 01:58:05;;;;;;;;;;;;;;;-1.78;57.06;101521.13;1089225;46;19942;-79
2023/02/09 01:59:09;;;;;;;;;;;;;;;-1.75;56.84;101523.69;1088023;54;19935;-80
2023/02/09 02:00:17;;;;;;;;;;;;;;;-1.72;57.08;101522.75;1088018;54;19950;-79
2023/02/09 02:01:22;;;;;;;;;;;;;;;-1.79;57.33;101519.38;1087505;54;19949;-80
2023/02/09 02:02:27;;;;;;;;;;;;;;;-1.76;57.13;101514.09;1087992;54;19969;-79
2023/02/09 02:03:31;;;;;;;;;;;;;;;-1.75;56.90;101515.84;1088274;46;19998;-79
2023/02/09 02:04:33;;;;;;;;;;;;;;;-1.75;56.84;101512.34;1087921;54;19977;-80
2023/02/09 02:05:38;;;;;;;;;;;;;;;-1.84;57.08;101520.41;1088203;46;19945;-80
2023/02/09 02:06:39;;;;;;;;;;;;;;;-1.92;57.55;101521.38;1087684;54;19942;-79
2023/02/09 02:07:46;;;;;;;;;;;;;;;-1.91;57.52;101517.03;1088073;46;19950;-80
2023/02/09 02:08:53;;;;;;;;;;;;;;;-1.96;57.78;101517.13;1087594;54;19950;-79
2023/02/09 02:09:55;;;;;;;;;;;;;;;-1.92;57.50;101520.53;1087368;54;19942;-79
2023/02/09 02:11:01;;;;;;;;;;;;;;;-1.89;57.44;101520.50;1086945;54;19951;-79
2023/02/09 02:12:02;;;;;;;;;;;;;;;-1.86;57.31;101523.03;1087225;54;19950;-79
2023/02/09 02:13:06;;;;;;;;;;;;;;;-1.86;56.98;101520.41;1087082;54;19951;-79
2023/02/09 02:14:22;;;;;;;;;;;;;;;-1.87;56.94;101523.91;1087014;54;20491;-78
2023/02/09 02:15:28;;;;;;;;;;;;;;;-1.94;57.52;101525.81;1087115;54;19950;-79
2023/02/09 02:16:47;;;;;;;;;;;;;;;-1.93;57.34;101526.66;1087427;54;19945;-80
2023/02/09 02:17:53;;;;;;;;;;;;;;;-1.94;57.33;101530.19;1087572;54;19970;-78
2023/02/09 02:19:11;;;;;;;;;;;;;;;-1.98;57.46;101525.91;1087521;54;19943;-80
2023/02/09 02:20:27;;;;;;;;;;;;;;;-1.95;57.17;101525.81;1087697;54;19950;-79
2023/02/09 02:21:50;;;;;;;;;;;;;;;-1.95;57.20;101524.09;1087703;54;19962;-79
2023/02/09 02:22:58;;;;;;;;;;;;;;;-1.99;57.07;101521.56;1087595;54;19942;-80
2023/02/09 02:24:09;;;;;;;;;;;;;;;-1.99;57.41;101518.94;1087647;54;19950;-79
2023/02/09 02:25:22;;;;;;;;;;;;;;;-1.96;57.15;101526.72;1087672;54;19942;-80
2023/02/09 02:26:42;;;;;;;;;;;;;;;-1.98;57.22;101523.28;1092762;39;20277;-80
2023/02/09 02:27:45;;;;;;;;;;;;;;;-1.96;57.03;101526.72;1087712;54;19956;-80
2023/02/09 02:29:16;;;;;;;;;;;;;;;-2.05;57.19;101527.75;1087568;54;19942;-80
2023/02/09 02:30:33;;;;;;;;;;;;;;;-2.13;57.76;101525.28;1087293;54;19942;-80
2023/02/09 02:31:49;;;;;;;;;;;;;;;-2.12;57.68;101521.75;1087293;54;20018;-80
2023/02/09 02:32:59;;;;;;;;;;;;;;;-2.17;57.69;101522.72;1087320;54;19950;-79
2023/02/09 02:34:02;;;;;;;;;;;;;;;-2.25;57.87;101528.97;1087132;54;19958;-79
2023/02/09 02:35:10;;;;;;;;;;;;;;;-2.25;58.01;101528.09;1087181;54;19942;-80
2023/02/09 02:36:16;;;;;;;;;;;;;;;-2.22;58.09;101526.28;1087320;54;19957;-79
2023/02/09 02:37:32;;;;;;;;;;;;;;;-2.17;57.84;101518.34;1088134;46;19949;-80
2023/02/09 02:38:39;;;;;;;;;;;;;;;-2.26;57.98;101522.00;1087158;54;19999;-79
2023/02/09 02:39:47;;;;;;;;;;;;;;;-2.29;58.19;101529.06;1087292;54;19942;-80
2023/02/09 02:40:56;;;;;;;;;;;;;;;-2.29;58.42;101515.97;1087186;54;20630;-79
2023/02/09 02:43:23;;;;;;;;;;;;;;;-2.17;58.20;101514.88;1087187;54;19950;-79
2023/02/09 02:44:26;;;;;;;;;;;;;;;-2.17;58.22;101513.09;1088194;39;20146;-80
2023/02/09 02:45:37;;;;;;;;;;;;;;;-2.15;58.27;101513.94;1087221;54;19991;-80
2023/02/09 02:46:43;;;;;;;;;;;;;;;-2.16;58.06;101520.06;1087247;54;19965;-79
2023/02/09 02:47:50;;;;;;;;;;;;;;;-2.29;58.23;101514.19;1087208;54;19954;-79
2023/02/09 02:48:56;;;;;;;;;;;;;;;-2.35;58.65;101509.91;1087310;54;20904;-80
2023/02/09 02:50:02;;;;;;;;;;;;;;;-2.29;58.32;101508.94;1087331;54;19965;-80
2023/02/09 02:51:08;;;;;;;;;;;;;;;-2.29;58.74;101511.56;1087273;54;19939;-79
2023/02/09 02:52:10;;;;;;;;;;;;;;;-2.28;58.57;101501.97;1087287;54;19942;-79
2023/02/09 02:53:15;;;;;;;;;;;;;;;-2.25;58.28;101507.13;1090704;39;20924;-80
2023/02/09 02:54:17;;;;;;;;;;;;;;;-2.20;58.30;101502.69;1089186;46;19946;-80
2023/02/09 02:55:24;;;;;;;;;;;;;;;-2.14;57.98;101507.81;1087292;54;19943;-80
2023/02/09 02:56:27;;;;;;;;;;;;;;;-2.11;58.21;101512.13;1087213;54;19942;-78
2023/02/09 02:57:34;;;;;;;;;;;;;;;-2.09;58.00;101510.34;1087191;54;19935;-80
2023/02/09 02:58:37;;;;;;;;;;;;;;;-2.11;57.87;101513.00;1086845;54;20547;-78
2023/02/09 02:59:44;;;;;;;;;;;;;;;-2.05;57.71;101512.03;1086940;54;19950;-79
2023/02/09 03:00:47;;;;;;;;;;;;;;;-2.05;57.88;101512.88;1086873;54;19943;-79
2023/02/09 03:01:57;;;;;;;;;;;;;;;-2.05;57.95;101506.78;1086549;54;20039;-78
2023/02/09 03:02:59;;;;;;;;;;;;;;;-2.12;57.89;101508.66;1086875;54;19950;-79
2023/02/09 03:04:04;;;;;;;;;;;;;;;-2.14;58.26;101512.22;1086959;54;19949;-79
2023/02/09 03:05:06;;;;;;;;;;;;;;;-2.17;58.38;101512.25;1087093;54;19959;-79
2023/02/09 03:06:11;;;;;;;;;;;;;;;-2.13;58.22;101504.31;1087024;54;19942;-79
2023/02/09 03:07:16;;;;;;;;;;;;;;;-2.07;57.99;101505.94;1087040;54;20003;-79
2023/02/09 03:08:19;;;;;;;;;;;;;;;-2.04;57.97;101505.91;1087313;54;19943;-79
2023/02/09 03:09:21;;;;;;;;;;;;;;;-2.04;58.03;101514.63;1087266;54;19957;-78
2023/02/09 03:10:31;;;;;;;;;;;;;;;-2.06;58.16;101511.16;1087213;54;20002;-79
2023/02/09 03:11:36;;;;;;;;;;;;;;;-2.02;57.97;101511.09;1087582;54;19942;-78
2023/02/09 03:12:46;;;;;;;;;;;;;;;-2.02;58.12;101516.34;1087546;54;20026;-79
2023/02/09 03:14:11;;;;;;;;;;;;;;;-2.00;57.87;101504.94;1087457;54;20572;-78
2023/02/09 03:15:17;;;;;;;;;;;;;;;-1.96;57.71;101511.88;1087638;54;19942;-79
2023/02/09 03:16:27;;;;;;;;;;;;;;;-1.92;57.70;101507.44;1087633;54;19950;-79
2023/02/09 03:17:40;;;;;;;;;;;;;;;-1.94;57.58;101510.09;1087679;54;19945;-78
2023/02/09 03:18:48;;;;;;;;;;;;;;;-1.96;57.78;101505.75;1087695;54;19949;-79
2023/02/09 03:19:51;;;;;;;;;;;;;;;-2.02;58.09;101504.09;1087671;54;19950;-79
2023/02/09 03:20:58;;;;;;;;;;;;;;;-1.99;57.57;101497.97;1087602;54;19950;-79
2023/02/09 03:22:02;;;;;;;;;;;;;;;-2.05;58.04;101502.41;1087541;54;19946;-79
2023/02/09 03:23:08;;;;;;;;;;;;;;;-2.12;58.16;101502.53;1087618;54;19947;-79
2023/02/09 03:24:14;;;;;;;;;;;;;;;-2.25;58.80;101496.66;1087465;54;19947;-80
2023/02/09 03:25:20;;;;;;;;;;;;;;;-2.34;59.02;101500.31;1087582;54;19942;-79
2023/02/09 03:26:23;;;;;;;;;;;;;;;-2.40;59.31;101498.66;1087638;54;19951;-79
2023/02/09 03:27:29;;;;;;;;;;;;;;;-2.46;59.34;101496.16;1087814;46;20626;-79
2023/02/09 03:28:32;;;;;;;;;;;;;;;-2.49;59.54;101496.19;1087523;54;19949;-79
2023/02/09 03:29:36;;;;;;;;;;;;;;;-2.51;60.00;101497.97;1087716;54;19949;-79
2023/02/09 03:30:40;;;;;;;;;;;;;;;-2.49;60.15;101495.31;1087613;54;19949;-80
2023/02/09 03:31:44;;;;;;;;;;;;;;;-2.51;60.15;101492.72;1088746;39;20488;-80
2023/02/09 03:32:48;;;;;;;;;;;;;;;-2.49;59.98;101497.94;1087762;54;19965;-81
2023/02/09 03:33:53;;;;;;;;;;;;;;;-2.43;59.66;101490.00;1087695;54;19970;-79
2023/02/09 03:34:54;;;;;;;;;;;;;;;-2.39;59.52;101495.16;1092225;39;20542;-79
2023/02/09 03:35:59;;;;;;;;;;;;;;;-2.33;59.00;101490.69;1087814;46;19942;-79
2023/02/09 03:37:00;;;;;;;;;;;;;;;-2.31;59.04;101499.38;1087586;54;19966;-80
2023/02/09 03:38:06;;;;;;;;;;;;;;;-2.30;58.74;101501.13;1087623;54;20574;-79
2023/02/09 03:39:07;;;;;;;;;;;;;;;-2.31;59.15;101502.00;1087524;54;19942;-79
2023/02/09 03:40:11;;;;;;;;;;;;;;;-2.27;58.83;101501.94;1087540;54;20512;-79
2023/02/09 03:41:12;;;;;;;;;;;;;;;-2.23;58.63;101497.50;1087589;54;19965;-79
2023/02/09 03:42:16;;;;;;;;;;;;;;;-2.21;58.64;101503.59;1087617;54;20014;-79
2023/02/09 03:43:17;;;;;;;;;;;;;;;-2.23;58.83;101502.72;1087525;54;19943;-79
2023/02/09 03:44:27;;;;;;;;;;;;;;;-2.24;59.38;101501.88;1087630;54;19943;-79
2023/02/09 03:45:31;;;;;;;;;;;;;;;-2.27;59.79;101501.94;1087650;54;19927;-79
2023/02/09 03:46:32;;;;;;;;;;;;;;;-2.26;60.01;101513.25;1087620;54;20535;-79
2023/02/09 03:47:36;;;;;;;;;;;;;;;-2.24;60.00;101514.09;1087600;54;19934;-79
2023/02/09 03:48:39;;;;;;;;;;;;;;;-2.28;60.14;101512.44;1087677;54;19942;-79
2023/02/09 03:49:44;;;;;;;;;;;;;;;-2.27;60.38;101507.16;1087691;54;19942;-79
2023/02/09 03:50:45;;;;;;;;;;;;;;;-2.31;60.92;101518.56;1087631;54;19943;-79
2023/02/09 03:51:49;;;;;;;;;;;;;;;-2.31;61.23;101520.34;1087749;54;19951;-79
2023/02/09 03:52:50;;;;;;;;;;;;;;;-2.32;61.28;101518.63;1089631;39;20400;-79
2023/02/09 03:53:54;;;;;;;;;;;;;;;-2.37;61.53;101516.97;1087517;54;19951;-80
2023/02/09 03:54:58;;;;;;;;;;;;;;;-2.38;61.56;101514.34;1087752;54;19950;-79
2023/02/09 03:55:59;;;;;;;;;;;;;;;-2.49;62.38;101522.38;1089194;39;20431;-79
2023/02/09 03:57:03;;;;;;;;;;;;;;;-2.57;62.77;101517.25;1089443;31;20535;-78
2023/02/09 03:58:04;;;;;;;;;;;;;;;-2.56;62.42;101516.38;1087827;54;19966;-79
2023/02/09 03:59:08;;;;;;;;;;;;;;;-2.56;62.37;101515.53;1087811;54;19970;-79
2023/02/09 04:00:10;;;;;;;;;;;;;;;-2.58;62.20;101517.31;1089879;39;20468;-79
2023/02/09 04:01:13;;;;;;;;;;;;;;;-2.57;62.13;101519.03;1087952;54;19950;-79
2023/02/09 04:02:14;;;;;;;;;;;;;;;-2.68;63.20;101514.84;1087496;54;19943;-78
2023/02/09 04:03:18;;;;;;;;;;;;;;;-2.64;62.58;101518.25;1087917;54;19939;-79
2023/02/09 04:04:25;;;;;;;;;;;;;;;-2.63;62.24;101513.88;1087944;46;19943;-79
2023/02/09 04:05:26;;;;;;;;;;;;;;;-2.64;62.43;101515.63;1087931;54;19950;-78
2023/02/09 04:06:41;;;;;;;;;;;;;;;-2.65;62.51;101510.44;1088031;54;19951;-79
2023/02/09 04:07:42;;;;;;;;;;;;;;;-2.64;61.78;101509.56;1088385;46;19963;-79
2023/02/09 04:08:46;;;;;;;;;;;;;;;-2.65;61.83;101516.53;1087822;54;19927;-78
2023/02/09 04:09:49;;;;;;;;;;;;;;;-2.65;62.14;101515.69;1094404;39;20933;-79
2023/02/09 04:10:50;;;;;;;;;;;;;;;-2.69;61.86;101515.72;1087855;54;19942;-78
2023/02/09 04:11:55;;;;;;;;;;;;;;;-2.70;61.88;101516.59;1087814;54;20002;-78
2023/02/09 04:12:56;;;;;;;;;;;;;;;-2.71;61.69;101517.47;1087756;54;19942;-79
2023/02/09 04:14:00;;;;;;;;;;;;;;;-2.69;61.70;101515.72;1087702;54;19955;-80
2023/02/09 04:15:01;;;;;;;;;;;;;;;-2.65;61.53;101529.63;1087742;54;19949;-80
2023/02/09 04:16:05;;;;;;;;;;;;;;;-2.63;61.50;101521.72;1089748;39;20506;-79
2023/02/09 04:17:06;;;;;;;;;;;;;;;-2.60;61.50;101522.56;1089653;39;20625;-79
2023/02/09 04:18:09;;;;;;;;;;;;;;;-2.57;61.21;101525.13;1087644;54;19951;-79
2023/02/09 04:19:11;;;;;;;;;;;;;;;-2.55;60.91;101531.22;1087671;54;19942;-79
2023/02/09 04:20:17;;;;;;;;;;;;;;;-2.57;60.90;101529.50;1087446;54;19982;-79
2023/02/09 04:21:19;;;;;;;;;;;;;;;-2.60;60.83;101526.94;1087756;54;19934;-79
2023/02/09 04:22:22;;;;;;;;;;;;;;;-2.56;60.95;101531.25;1087797;54;20790;-79
2023/02/09 04:23:23;;;;;;;;;;;;;;;-2.53;60.83;101518.06;1087767;54;20608;-80
2023/02/09 04:24:27;;;;;;;;;;;;;;;-2.51;61.24;101516.31;1087793;54;19950;-79
2023/02/09 04:25:28;;;;;;;;;;;;;;;-2.48;61.18;101529.34;1087719;54;19926;-79
2023/02/09 04:26:32;;;;;;;;;;;;;;;-2.47;61.37;101520.63;1087806;54;19949;-79
2023/02/09 04:27:33;;;;;;;;;;;;;;;-2.46;61.15;101522.34;1087673;54;19939;-80
2023/02/09 04:28:37;;;;;;;;;;;;;;;-2.42;61.40;101524.00;1087658;54;19957;-79
2023/02/09 04:29:38;;;;;;;;;;;;;;;-2.40;61.10;101527.47;1087674;54;19950;-79
2023/02/09 04:30:42;;;;;;;;;;;;;;;-2.39;61.18;101521.34;1087684;54;19967;-79
2023/02/09 04:31:43;;;;;;;;;;;;;;;-2.38;61.12;101520.47;1087697;54;19942;-79
2023/02/09 04:32:47;;;;;;;;;;;;;;;-2.38;61.16;101520.47;1087622;54;19943;-79
2023/02/09 04:33:48;;;;;;;;;;;;;;;-2.37;61.25;101522.19;1087698;54;19939;-80
2023/02/09 04:34:52;;;;;;;;;;;;;;;-2.39;61.15;101521.34;1087707;54;19954;-79
2023/02/09 04:35:55;;;;;;;;;;;;;;;-2.41;61.33;101520.50;1092244;39;20569;-79
2023/02/09 04:36:59;;;;;;;;;;;;;;;-2.40;61.38;101524.84;1087674;54;19943;-79
2023/02/09 04:38:00;;;;;;;;;;;;;;;-2.40;61.38;101521.34;1090192;39;20510;-79
2023/02/09 04:39:04;;;;;;;;;;;;;;;-2.41;61.26;101515.25;1087578;54;19949;-80
2023/02/09 04:40:05;;;;;;;;;;;;;;;-2.41;61.35;101515.25;1087655;54;19943;-79
2023/02/09 04:41:09;;;;;;;;;;;;;;;-2.41;61.22;101510.03;1089088;46;19942;-79
2023/02/09 04:42:10;;;;;;;;;;;;;;;-2.48;61.58;101510.16;1087588;54;19939;-79
2023/02/09 04:43:14;;;;;;;;;;;;;;;-2.48;61.43;101507.53;1087627;54;19942;-80
2023/02/09 04:44:15;;;;;;;;;;;;;;;-2.48;61.33;101515.38;1087521;54;19949;-81
2023/02/09 04:45:20;;;;;;;;;;;;;;;-2.46;60.98;101505.75;1088233;46;19947;-79
2023/02/09 04:46:22;;;;;;;;;;;;;;;-2.52;61.05;101506.72;1087731;54;19943;-80
2023/02/09 04:47:25;;;;;;;;;;;;;;;-2.57;61.07;101505.94;1087719;54;19943;-79
2023/02/09 04:48:27;;;;;;;;;;;;;;;-2.57;61.07;101504.16;1087557;54;20708;-80
2023/02/09 04:49:31;;;;;;;;;;;;;;;-2.58;61.16;101505.06;1087623;54;19935;-79
2023/02/09 04:50:32;;;;;;;;;;;;;;;-2.58;61.27;101502.44;1087679;54;19942;-79
2023/02/09 04:51:38;;;;;;;;;;;;;;;-2.56;60.97;101502.44;1087621;54;19975;-79
2023/02/09 04:52:39;;;;;;;;;;;;;;;-2.56;60.83;101499.81;1087641;54;19946;-79
2023/02/09 04:53:43;;;;;;;;;;;;;;;-2.62;60.66;101499.91;1087662;54;19942;-79
2023/02/09 04:54:44;;;;;;;;;;;;;;;-2.62;61.06;101489.41;1087643;54;20684;-80
2023/02/09 04:55:49;;;;;;;;;;;;;;;-2.57;60.79;101495.47;1087853;46;20673;-80
2023/02/09 04:59:33;;;;;;;;;;;;;;;-2.54;60.71;101492.78;1087710;54;19957;-79
2023/02/09 04:59:34;;;;;;;;;;;;;;;-2.60;60.90;101492.88;1089733;39;20538;-80
2023/02/09 05:00:37;;;;;;;;;;;;;;;-2.59;60.74;101490.22;1087647;54;20058;-80
2023/02/09 05:01:41;;;;;;;;;;;;;;;-2.56;60.57;101491.97;1087560;54;21078;-79
2023/02/09 05:02:42;;;;;;;;;;;;;;;-2.57;60.96;101487.59;1087329;54;19942;-79
2023/02/09 05:03:46;;;;;;;;;;;;;;;-2.56;60.68;101484.94;1087514;54;19943;-79
2023/02/09 05:04:47;;;;;;;;;;;;;;;-2.54;60.91;101487.53;1087612;54;19949;-80
2023/02/09 05:05:51;;;;;;;;;;;;;;;-2.53;60.75;101478.78;1087605;54;19942;-81
2023/02/09 05:06:57;;;;;;;;;;;;;;;-2.54;61.00;101491.03;1087624;54;19943;-79
2023/02/09 05:07:58;;;;;;;;;;;;;;;-2.53;61.02;101487.53;1087617;54;19942;-79
2023/02/09 05:09:02;;;;;;;;;;;;;;;-2.50;60.94;101481.38;1087511;54;19956;-79
2023/02/09 05:10:04;;;;;;;;;;;;;;;-2.57;61.93;101483.22;1087575;54;19950;-79
2023/02/09 05:11:08;;;;;;;;;;;;;;;-2.64;62.28;101483.38;1087559;54;19949;-80
2023/02/09 05:12:09;;;;;;;;;;;;;;;-2.65;62.54;101477.25;1087580;54;19942;-80
2023/02/09 05:13:12;;;;;;;;;;;;;;;-2.68;63.20;101479.91;1087583;54;19967;-80
2023/02/09 05:14:14;;;;;;;;;;;;;;;-2.70;63.46;101477.31;1087492;54;19950;-79
2023/02/09 05:15:17;;;;;;;;;;;;;;;-2.68;63.09;101485.16;1087541;54;20661;-80
2023/02/09 05:16:19;;;;;;;;;;;;;;;-2.72;63.50;101489.56;1087578;54;19943;-79
2023/02/09 05:17:22;;;;;;;;;;;;;;;-2.73;63.44;101482.59;1087596;54;19927;-79
2023/02/09 05:18:24;;;;;;;;;;;;;;;-2.73;63.37;101487.84;1087580;54;19946;-79
2023/02/09 05:19:27;;;;;;;;;;;;;;;-2.71;63.15;101491.31;1087496;54;20662;-79
2023/02/09 05:20:28;;;;;;;;;;;;;;;-2.73;63.26;101487.84;1087536;54;20819;-79
2023/02/09 05:21:32;;;;;;;;;;;;;;;-2.74;63.52;101488.72;1087588;54;19943;-80
2023/02/09 05:22:36;;;;;;;;;;;;;;;-2.71;63.33;101490.44;1087499;54;19950;-79
2023/02/09 05:23:40;;;;;;;;;;;;;;;-2.72;63.25;101483.47;1087568;54;19953;-80
2023/02/09 05:24:41;;;;;;;;;;;;;;;-2.79;63.68;101484.47;1091052;39;20514;-80
2023/02/09 05:25:46;;;;;;;;;;;;;;;-2.82;63.98;101483.63;1087601;54;19949;-80
2023/02/09 05:26:47;;;;;;;;;;;;;;;-2.84;63.99;101484.56;1087558;54;19949;-79
2023/02/09 05:27:51;;;;;;;;;;;;;;;-2.87;63.94;101480.19;1087604;54;19942;-79
2023/02/09 05:28:55;;;;;;;;;;;;;;;-2.87;64.47;101489.81;1087488;54;19939;-79
2023/02/09 05:29:56;;;;;;;;;;;;;;;-2.87;63.91;101487.19;1087553;54;19965;-80
2023/02/09 05:30:59;;;;;;;;;;;;;;;-2.88;63.84;101494.16;1087881;39;20782;-79
2023/02/09 05:32:01;;;;;;;;;;;;;;;-2.85;63.69;101490.66;1087514;47;19942;-79
2023/02/09 05:33:04;;;;;;;;;;;;;;;-2.89;64.04;101502.94;1087618;54;19979;-79
2023/02/09 05:34:11;;;;;;;;;;;;;;;-2.87;63.91;101497.66;1087417;54;19949;-80
2023/02/09 05:35:23;;;;;;;;;;;;;;;-2.87;63.93;101497.66;1089605;39;20904;-80
2023/02/09 05:36:31;;;;;;;;;;;;;;;-2.86;63.99;101496.78;1087251;54;19939;-80
2023/02/09 05:37:42;;;;;;;;;;;;;;;-2.91;64.35;101502.09;1087251;54;19943;-80